createdAt,value
2019-02-03T00:00:57.343Z,4.80
2019-02-03T00:03:25.771Z,4.80
2019-02-03T00:05:54.243Z,4.80
2019-02-03T00:08:22.685Z,4.80
2019-02-03T00:10:51.096Z,4.90
2019-02-03T00:13:19.554Z,4.90
2019-02-03T00:15:48.562Z,4.90
2019-02-03T00:18:16.974Z,5.00
2019-02-03T00:20:45.611Z,5.00
2019-02-03T00:23:14.273Z,4.90
2019-02-03T00:25:42.939Z,4.90
2019-02-03T00:28:11.646Z,4.90
2019-02-03T00:30:40.463Z,4.90
2019-02-03T00:33:09.111Z,5.00
2019-02-03T00:35:37.574Z,5.00
2019-02-03T00:38:05.977Z,5.00
2019-02-03T00:40:34.436Z,5.00
2019-02-03T00:43:03.133Z,5.10
2019-02-03T00:45:31.618Z,5.00
2019-02-03T00:48:00.170Z,5.00
2019-02-03T00:50:28.861Z,4.80
2019-02-03T00:52:57.502Z,4.80
2019-02-03T00:55:25.945Z,4.70
2019-02-03T00:57:54.679Z,4.70
2019-02-03T01:00:23.142Z,4.60
2019-02-03T01:02:51.592Z,4.60
2019-02-03T01:05:20.539Z,4.70
2019-02-03T01:07:49.243Z,4.80
2019-02-03T01:10:19.884Z,4.70
2019-02-03T01:12:50.491Z,4.80
2019-02-03T01:15:19.240Z,4.70
2019-02-03T01:17:47.718Z,4.70
2019-02-03T01:20:21.490Z,4.70
2019-02-03T01:22:49.973Z,4.70
2019-02-03T01:25:18.646Z,4.70
2019-02-03T01:27:47.406Z,4.60
2019-02-03T01:30:21.225Z,4.50
2019-02-03T01:32:49.908Z,4.50
2019-02-03T01:35:19.557Z,4.50
2019-02-03T01:37:48.225Z,4.40
2019-02-03T01:40:20.335Z,4.40
2019-02-03T01:42:49.098Z,4.40
2019-02-03T01:45:22.105Z,4.40
2019-02-03T01:47:50.526Z,4.40
2019-02-03T01:50:18.954Z,4.50
2019-02-03T01:52:47.502Z,4.40
2019-02-03T01:55:21.241Z,4.40
2019-02-03T01:57:49.703Z,4.30
2019-02-03T02:00:21.220Z,4.40
2019-02-03T02:02:50.441Z,4.40
2019-02-03T02:05:19.488Z,4.40
2019-02-03T02:07:51.563Z,4.30
2019-02-03T02:10:20.802Z,4.30
2019-02-03T02:12:49.377Z,4.30
2019-02-03T02:15:21.789Z,4.30
2019-02-03T02:17:51.441Z,4.30
2019-02-03T02:20:28.140Z,4.30
2019-02-03T02:22:57.230Z,4.30
2019-02-03T02:25:25.780Z,4.30
2019-02-03T02:27:54.198Z,4.30
2019-02-03T02:30:24.860Z,4.30
2019-02-03T02:32:53.444Z,4.20
2019-02-03T02:35:21.885Z,4.20
2019-02-03T02:38:03.968Z,4.30
2019-02-03T02:40:22.427Z,4.30
2019-02-03T02:42:51.267Z,4.20
2019-02-03T02:45:20.238Z,4.20
2019-02-03T02:47:48.927Z,4.20
2019-02-03T02:50:25.885Z,4.20
2019-02-03T02:52:54.385Z,4.10
2019-02-03T02:55:23.086Z,4.10
2019-02-03T02:57:51.946Z,4.10
2019-02-03T03:00:25.195Z,4.00
2019-02-03T03:02:54.002Z,4.00
2019-02-03T03:05:22.907Z,4.10
2019-02-03T03:07:51.535Z,4.10
2019-02-03T03:10:21.054Z,4.10
2019-02-03T03:12:50.035Z,4.10
2019-02-03T03:15:20.257Z,4.00
2019-02-03T03:17:48.934Z,4.00
2019-02-03T03:20:19.602Z,4.00
2019-02-03T03:22:48.469Z,4.00
2019-02-03T03:25:19.621Z,4.10
2019-02-03T03:27:48.350Z,4.10
2019-02-03T03:30:21.909Z,4.10
2019-02-03T03:32:50.434Z,4.20
2019-02-03T03:35:18.937Z,4.20
2019-02-03T03:37:47.563Z,4.30
2019-02-03T03:40:21.408Z,4.30
2019-02-03T03:42:49.938Z,4.30
2019-02-03T03:45:18.635Z,4.30
2019-02-03T03:47:47.021Z,4.20
2019-02-03T03:50:16.322Z,4.10
2019-02-03T03:52:44.974Z,4.20
2019-02-03T03:55:13.837Z,4.10
2019-02-03T03:57:42.516Z,4.20
2019-02-03T04:00:17.095Z,4.10
2019-02-03T04:02:45.730Z,4.00
2019-02-03T04:05:14.662Z,4.00
2019-02-03T04:07:43.289Z,4.00
2019-02-03T04:10:14.480Z,4.00
2019-02-03T04:12:42.911Z,4.00
2019-02-03T04:15:14.358Z,4.00
2019-02-03T04:17:43.167Z,4.10
2019-02-03T04:20:17.718Z,4.10
2019-02-03T04:22:46.512Z,4.10
2019-02-03T04:25:15.062Z,4.20
2019-02-03T04:27:43.501Z,4.20
2019-02-03T04:30:15.334Z,4.30
2019-02-03T04:32:43.964Z,4.30
2019-02-03T04:35:12.457Z,4.30
2019-02-03T04:37:40.916Z,4.30
2019-02-03T04:40:15.129Z,4.20
2019-02-03T04:42:43.658Z,4.20
2019-02-03T04:45:14.388Z,4.20
2019-02-03T04:47:43.111Z,4.20
2019-02-03T04:50:13.984Z,4.10
2019-02-03T04:52:42.614Z,4.10
2019-02-03T04:55:13.897Z,4.10
2019-02-03T04:57:42.351Z,4.20
2019-02-03T05:00:16.596Z,4.10
2019-02-03T05:02:45.384Z,4.00
2019-02-03T05:05:14.313Z,4.00
2019-02-03T05:07:42.709Z,4.00
2019-02-03T05:10:13.726Z,4.00
2019-02-03T05:12:42.518Z,3.90
2019-02-03T05:15:17.414Z,4.00
2019-02-03T05:17:46.232Z,4.00
2019-02-03T05:20:17.961Z,4.00
2019-02-03T05:22:47.137Z,3.90
2019-02-03T05:25:15.811Z,3.90
2019-02-03T05:27:44.651Z,3.80
2019-02-03T05:30:27.378Z,3.80
2019-02-03T05:32:55.816Z,3.80
2019-02-03T05:35:24.342Z,3.80
2019-02-03T05:37:52.777Z,3.70
2019-02-03T05:40:21.171Z,3.70
2019-02-03T05:42:49.574Z,3.70
2019-02-03T05:45:22.569Z,3.80
2019-02-03T05:47:51.335Z,3.80
2019-02-03T05:50:23.195Z,3.60
2019-02-03T05:52:51.747Z,3.60
2019-02-03T05:55:20.611Z,3.60
2019-02-03T05:57:49.263Z,3.50
2019-02-03T06:00:24.671Z,3.50
2019-02-03T06:02:53.073Z,3.50
2019-02-03T06:05:21.693Z,3.50
2019-02-03T06:07:50.791Z,3.40
2019-02-03T06:10:19.423Z,3.50
2019-02-03T06:12:47.901Z,3.50
2019-02-03T06:15:16.942Z,3.50
2019-02-03T06:17:45.346Z,3.60
2019-02-03T06:20:16.827Z,3.60
2019-02-03T06:22:46.202Z,3.60
2019-02-03T06:25:15.161Z,3.50
2019-02-03T06:27:44.009Z,3.40
2019-02-03T06:30:21.316Z,3.40
2019-02-03T06:32:49.983Z,3.40
2019-02-03T06:35:18.619Z,3.30
2019-02-03T06:37:47.226Z,3.30
2019-02-03T06:40:15.695Z,3.40
2019-02-03T06:42:44.335Z,3.50
2019-02-03T06:45:30.411Z,3.50
2019-02-03T06:47:59.566Z,3.50
2019-02-03T06:50:27.989Z,3.60
2019-02-03T06:52:57.130Z,3.70
2019-02-03T06:55:25.810Z,3.70
2019-02-03T06:57:54.201Z,3.70
2019-02-03T07:00:22.862Z,3.80
2019-02-03T07:02:51.485Z,3.70
2019-02-03T07:05:19.890Z,3.80
2019-02-03T07:07:48.824Z,3.80
2019-02-03T07:10:17.895Z,3.80
2019-02-03T07:12:46.429Z,3.80
2019-02-03T07:15:15.029Z,3.80
2019-02-03T07:17:43.448Z,3.60
2019-02-03T07:20:18.696Z,3.60
2019-02-03T07:22:47.460Z,3.70
2019-02-03T07:25:15.912Z,3.80
2019-02-03T07:27:44.310Z,3.90
2019-02-03T07:30:25.429Z,3.90
2019-02-03T07:32:54.119Z,3.90
2019-02-03T07:35:22.751Z,4.00
2019-02-03T07:37:51.261Z,4.00
2019-02-03T07:40:21.229Z,4.00
2019-02-03T07:42:49.704Z,3.90
2019-02-03T07:45:18.283Z,3.90
2019-02-03T07:47:47.579Z,3.90
2019-02-03T07:50:16.913Z,3.90
2019-02-03T07:52:46.162Z,3.90
2019-02-03T07:55:15.302Z,3.90
2019-02-03T07:57:43.889Z,3.80
2019-02-03T08:00:17.464Z,3.90
2019-02-03T08:02:45.858Z,3.90
2019-02-03T08:05:14.577Z,3.80
2019-02-03T08:07:43.020Z,3.80
2019-02-03T08:10:25.776Z,3.90
2019-02-03T08:12:49.494Z,3.90
2019-02-03T08:15:19.101Z,4.00
2019-02-03T08:17:47.806Z,4.10
2019-02-03T08:20:30.663Z,4.00
2019-02-03T08:22:59.048Z,4.10
2019-02-03T08:25:28.186Z,4.10
2019-02-03T08:27:56.781Z,4.10
2019-02-03T08:30:30.164Z,4.10
2019-02-03T08:32:58.804Z,4.00
2019-02-03T08:35:27.399Z,4.00
2019-02-03T08:37:56.049Z,4.10
2019-02-03T08:40:36.783Z,4.10
2019-02-03T08:42:56.737Z,4.20
2019-02-03T08:45:25.924Z,4.10
2019-02-03T08:47:54.571Z,4.10
2019-02-03T08:50:24.007Z,4.20
2019-02-03T08:52:52.486Z,4.30
2019-02-03T08:55:21.122Z,4.30
2019-02-03T08:57:49.792Z,4.30
2019-02-03T09:00:34.615Z,4.30
2019-02-03T09:03:03.041Z,4.30
2019-02-03T09:05:32.156Z,4.40
2019-02-03T09:08:00.578Z,4.40
2019-02-03T09:10:29.333Z,4.50
2019-02-03T09:12:57.757Z,4.50
2019-02-03T09:15:27.377Z,4.40
2019-02-03T09:17:56.008Z,4.40
2019-02-03T09:20:30.014Z,4.40
2019-02-03T09:22:58.665Z,4.50
2019-02-03T09:25:27.356Z,4.60
2019-02-03T09:27:56.008Z,4.50
2019-02-03T09:30:35.329Z,4.60
2019-02-03T09:33:05.075Z,4.60
2019-02-03T09:35:34.104Z,4.60
2019-02-03T09:38:02.510Z,4.60
2019-02-03T09:40:33.239Z,4.60
2019-02-03T09:43:02.236Z,4.60
2019-02-03T09:45:30.923Z,4.50
2019-02-03T09:48:00.746Z,4.50
2019-02-03T09:50:31.141Z,4.60
2019-02-03T09:53:01.534Z,4.70
2019-02-03T09:55:31.150Z,4.60
2019-02-03T09:58:00.604Z,4.60
2019-02-03T10:00:36.082Z,4.70
2019-02-03T10:03:09.228Z,4.80
2019-02-03T10:05:37.640Z,4.80
2019-02-03T10:08:06.499Z,4.80
2019-02-03T10:10:39.512Z,4.80
2019-02-03T10:13:08.346Z,4.80
2019-02-03T10:15:37.031Z,4.90
2019-02-03T10:18:08.194Z,4.90
2019-02-03T10:20:36.607Z,4.90
2019-02-03T10:23:05.563Z,4.80
2019-02-03T10:25:35.408Z,4.90
2019-02-03T10:28:04.464Z,4.70
2019-02-03T10:30:32.877Z,4.60
2019-02-03T10:33:01.517Z,4.50
2019-02-03T10:35:32.007Z,4.50
2019-02-03T10:38:01.006Z,4.40
2019-02-03T10:40:38.332Z,4.50
2019-02-03T10:43:07.365Z,4.50
2019-02-03T10:45:35.833Z,4.60
2019-02-03T10:48:05.124Z,4.60
2019-02-03T10:50:38.237Z,4.70
2019-02-03T10:53:09.337Z,4.70
2019-02-03T10:55:38.166Z,4.70
2019-02-03T10:58:07.197Z,4.80
2019-02-03T11:00:41.350Z,4.90
2019-02-03T11:03:11.015Z,4.90
2019-02-03T11:05:42.770Z,5.00
2019-02-03T11:08:12.607Z,5.00
2019-02-03T11:10:41.485Z,5.10
2019-02-03T11:13:09.942Z,4.90
2019-02-03T11:15:38.615Z,4.80
2019-02-03T11:18:07.420Z,4.80
2019-02-03T11:20:36.250Z,4.70
2019-02-03T11:23:05.237Z,4.90
2019-02-03T11:25:33.869Z,4.80
2019-02-03T11:28:02.651Z,4.90
2019-02-03T11:30:31.550Z,4.90
2019-02-03T11:33:06.160Z,4.90
2019-02-03T11:35:32.211Z,5.00
2019-02-03T11:38:00.812Z,4.90
2019-02-03T11:40:36.963Z,5.00
2019-02-03T11:43:06.272Z,5.10
2019-02-03T11:45:38.430Z,5.20
2019-02-03T11:48:13.229Z,5.20
2019-02-03T11:50:43.618Z,5.20
2019-02-03T11:53:14.157Z,5.20
2019-02-03T11:55:43.025Z,5.30
2019-02-03T11:58:12.357Z,5.40
2019-02-03T12:00:40.931Z,5.30
2019-02-03T12:03:09.867Z,5.30
2019-02-03T12:05:38.920Z,5.30
2019-02-03T12:08:08.362Z,5.30
2019-02-03T12:10:37.244Z,5.40
2019-02-03T12:13:06.880Z,5.50
2019-02-03T12:15:36.400Z,5.50
2019-02-03T12:18:06.001Z,5.50
2019-02-03T12:20:34.445Z,5.50
2019-02-03T12:23:02.934Z,5.50
2019-02-03T12:25:34.301Z,5.60
2019-02-03T12:28:04.312Z,5.60
2019-02-03T12:30:33.652Z,5.70
2019-02-03T12:33:03.318Z,5.60
2019-02-03T12:35:31.982Z,5.70
2019-02-03T12:38:00.511Z,5.90
2019-02-03T12:40:32.001Z,5.90
2019-02-03T12:43:00.734Z,6.00
2019-02-03T12:45:29.797Z,6.00
2019-02-03T12:47:58.627Z,6.00
2019-02-03T12:50:27.121Z,6.00
2019-02-03T12:52:55.570Z,6.10
2019-02-03T12:55:27.240Z,6.00
2019-02-03T12:57:55.974Z,6.00
2019-02-03T13:00:32.471Z,6.00
2019-02-03T13:03:01.194Z,6.00
2019-02-03T13:05:30.051Z,6.00
2019-02-03T13:07:59.892Z,5.90
2019-02-03T13:10:34.150Z,5.90
2019-02-03T13:13:02.552Z,6.10
2019-02-03T13:15:48.320Z,6.00
2019-02-03T13:18:16.796Z,5.90
2019-02-03T13:20:45.669Z,6.00
2019-02-03T13:23:14.518Z,6.10
2019-02-03T13:25:43.257Z,6.10
2019-02-03T13:28:11.829Z,6.00
2019-02-03T13:30:42.866Z,5.90
2019-02-03T13:33:11.514Z,5.90
2019-02-03T13:35:40.027Z,5.80
2019-02-03T13:38:09.069Z,5.70
2019-02-03T13:40:37.566Z,5.70
2019-02-03T13:43:06.147Z,5.70
2019-02-03T13:45:34.638Z,5.60
2019-02-03T13:48:03.173Z,5.70
2019-02-03T13:50:31.978Z,5.70
2019-02-03T13:53:00.394Z,5.70
2019-02-03T13:55:29.189Z,5.90
2019-02-03T13:57:57.661Z,5.90
2019-02-03T14:00:29.322Z,5.90
2019-02-03T14:02:58.004Z,5.80
2019-02-03T14:05:26.721Z,5.80
2019-02-03T14:07:55.318Z,5.70
2019-02-03T14:10:29.278Z,5.60
2019-02-03T14:12:58.648Z,5.70
2019-02-03T14:15:27.696Z,5.60
2019-02-03T14:17:56.466Z,5.50
2019-02-03T14:20:26.630Z,5.40
2019-02-03T14:22:56.756Z,5.40
2019-02-03T14:25:25.942Z,5.50
2019-02-03T14:27:55.131Z,5.40
2019-02-03T14:30:26.164Z,5.40
2019-02-03T14:32:58.292Z,5.40
2019-02-03T14:35:25.375Z,5.50
2019-02-03T14:37:54.069Z,5.50
2019-02-03T14:40:23.815Z,5.60
2019-02-03T14:43:01.086Z,5.60
2019-02-03T14:45:24.582Z,5.50
2019-02-03T14:47:53.151Z,5.40
2019-02-03T14:50:25.496Z,5.50
2019-02-03T14:52:56.815Z,5.50
2019-02-03T14:55:31.239Z,5.50
2019-02-03T14:57:59.929Z,5.50
2019-02-03T15:00:30.626Z,5.50
2019-02-03T15:03:00.178Z,5.50
2019-02-03T15:05:29.024Z,5.50
2019-02-03T15:07:57.715Z,5.50
2019-02-03T15:10:26.259Z,5.40
2019-02-03T15:12:54.736Z,5.40
2019-02-03T15:15:26.030Z,5.30
2019-02-03T15:17:54.905Z,5.40
2019-02-03T15:20:24.853Z,5.40
2019-02-03T15:22:53.904Z,5.30
2019-02-03T15:25:23.376Z,5.40
2019-02-03T15:27:51.986Z,5.30
2019-02-03T15:30:23.514Z,5.30
2019-02-03T15:32:51.985Z,5.40
2019-02-03T15:35:20.696Z,5.30
2019-02-03T15:37:49.214Z,5.30
2019-02-03T15:40:20.924Z,5.20
2019-02-03T15:42:49.580Z,5.20
2019-02-03T15:45:20.544Z,5.20
2019-02-03T15:47:49.210Z,5.30
2019-02-03T15:50:21.670Z,5.30
2019-02-03T15:52:50.818Z,5.30
2019-02-03T15:55:22.333Z,5.40
2019-02-03T15:57:51.623Z,5.40
2019-02-03T16:00:30.224Z,5.30
2019-02-03T16:02:58.693Z,5.20
2019-02-03T16:05:27.614Z,5.10
2019-02-03T16:07:56.050Z,5.10
2019-02-03T16:10:26.488Z,5.10
2019-02-03T16:12:54.947Z,5.10
2019-02-03T16:15:23.598Z,5.10
2019-02-03T16:17:52.457Z,5.10
2019-02-03T16:20:30.969Z,5.10
2019-02-03T16:23:00.662Z,5.10
2019-02-03T16:25:29.442Z,5.10
2019-02-03T16:27:58.101Z,5.20
2019-02-03T16:30:32.473Z,5.20
2019-02-03T16:33:01.309Z,5.20
2019-02-03T16:35:30.259Z,5.30
2019-02-03T16:37:59.009Z,5.30
2019-02-03T16:40:32.081Z,5.30
2019-02-03T16:43:00.711Z,5.40
2019-02-03T16:45:29.621Z,5.30
2019-02-03T16:47:58.282Z,5.30
2019-02-03T16:50:29.110Z,5.20
2019-02-03T16:52:58.517Z,5.20
2019-02-03T16:55:27.152Z,5.20
2019-02-03T16:57:56.496Z,5.10
2019-02-03T17:00:27.648Z,5.10
2019-02-03T17:02:57.364Z,5.20
2019-02-03T17:05:27.893Z,5.20
2019-02-03T17:07:57.035Z,5.20
2019-02-03T17:10:26.380Z,5.10
2019-02-03T17:12:55.238Z,5.10
2019-02-03T17:15:44.870Z,5.20
2019-02-03T17:18:14.102Z,5.20
2019-02-03T17:20:42.900Z,5.20
2019-02-03T17:23:12.506Z,5.20
2019-02-03T17:25:50.317Z,5.10
2019-02-03T17:28:19.497Z,5.10
2019-02-03T17:30:48.088Z,5.10
2019-02-03T17:33:17.034Z,5.10
2019-02-03T17:35:54.004Z,5.10
2019-02-03T17:38:16.127Z,5.10
2019-02-03T17:40:44.607Z,5.10
2019-02-03T17:43:13.027Z,5.00
2019-02-03T17:45:41.728Z,5.10
2019-02-03T17:48:10.563Z,5.10
2019-02-03T17:50:39.190Z,5.10
2019-02-03T17:53:07.997Z,5.20
2019-02-03T17:55:36.510Z,5.20
2019-02-03T17:58:05.165Z,5.20
2019-02-03T18:00:44.373Z,5.20
2019-02-03T18:03:12.843Z,5.20
2019-02-03T18:05:41.463Z,5.10
2019-02-03T18:08:11.001Z,5.10
2019-02-03T18:10:39.391Z,5.00
2019-02-03T18:13:08.260Z,5.00
2019-02-03T18:15:37.025Z,4.90
2019-02-03T18:18:07.308Z,4.90
2019-02-03T18:20:36.084Z,4.80
2019-02-03T18:23:05.555Z,4.90
2019-02-03T18:25:34.031Z,4.90
2019-02-03T18:28:02.419Z,4.90
2019-02-03T18:30:32.413Z,4.80
2019-02-03T18:33:01.534Z,4.80
2019-02-03T18:35:30.096Z,4.90
2019-02-03T18:38:01.704Z,4.90
2019-02-03T18:40:30.185Z,4.90
2019-02-03T18:43:01.703Z,5.00
2019-02-03T18:45:29.334Z,5.00
2019-02-03T18:47:58.018Z,5.00
2019-02-03T18:50:26.705Z,5.10
2019-02-03T18:52:56.373Z,5.10
2019-02-03T18:55:28.990Z,5.10
2019-02-03T18:57:57.748Z,5.10
2019-02-03T19:00:28.701Z,5.00
2019-02-03T19:02:57.421Z,5.00
2019-02-03T19:05:29.093Z,5.00
2019-02-03T19:07:57.740Z,5.00
2019-02-03T19:10:27.450Z,5.00
2019-02-03T19:12:55.835Z,5.00
2019-02-03T19:15:26.166Z,5.00
2019-02-03T19:17:54.877Z,5.00
2019-02-03T19:20:28.765Z,5.00
2019-02-03T19:22:57.644Z,5.00
2019-02-03T19:25:26.800Z,4.90
2019-02-03T19:27:55.593Z,4.90
2019-02-03T19:30:25.899Z,4.90
2019-02-03T19:32:54.650Z,4.80
2019-02-03T19:35:31.598Z,4.80
2019-02-03T19:38:01.825Z,4.70
2019-02-03T19:40:34.161Z,4.70
2019-02-03T19:43:03.140Z,4.70
2019-02-03T19:45:32.870Z,4.70
2019-02-03T19:48:01.514Z,4.70
2019-02-03T19:50:38.244Z,4.70
2019-02-03T19:53:08.538Z,4.70
2019-02-03T19:55:37.380Z,4.70
2019-02-03T19:58:07.175Z,4.60
2019-02-03T20:00:41.509Z,4.60
2019-02-03T20:03:10.694Z,4.70
2019-02-03T20:05:42.646Z,4.70
2019-02-03T20:08:10.793Z,4.70
2019-02-03T20:10:39.309Z,4.70
2019-02-03T20:13:08.364Z,4.70
2019-02-03T20:15:37.079Z,4.80
2019-02-03T20:18:05.750Z,4.70
2019-02-03T20:20:36.668Z,4.70
2019-02-03T20:23:06.648Z,4.70
2019-02-03T20:25:35.868Z,4.70
2019-02-03T20:28:05.737Z,4.70
2019-02-03T20:30:38.467Z,4.70
2019-02-03T20:33:05.078Z,4.70
2019-02-03T20:35:33.814Z,4.80
2019-02-03T20:38:02.496Z,4.70
2019-02-03T20:40:34.114Z,4.70
2019-02-03T20:43:02.911Z,4.70
2019-02-03T20:45:31.743Z,4.70
2019-02-03T20:48:00.256Z,4.70
2019-02-03T20:50:29.012Z,4.80
2019-02-03T20:52:58.620Z,4.80
2019-02-03T20:55:27.509Z,4.80
2019-02-03T20:57:56.358Z,4.80
2019-02-03T21:00:30.099Z,4.80
2019-02-03T21:02:58.832Z,4.80
2019-02-03T21:05:27.700Z,4.80
2019-02-03T21:07:56.196Z,4.80
2019-02-03T21:10:25.984Z,4.80
2019-02-03T21:12:54.962Z,4.80
2019-02-03T21:15:32.957Z,4.70
2019-02-03T21:17:56.245Z,4.70
2019-02-03T21:20:27.331Z,4.80
2019-02-03T21:22:55.812Z,4.80
2019-02-03T21:25:24.455Z,4.80
2019-02-03T21:27:53.269Z,4.80
2019-02-03T21:30:27.585Z,4.80
2019-02-03T21:32:56.595Z,4.70
2019-02-03T21:35:25.148Z,4.70
2019-02-03T21:37:53.836Z,4.70
2019-02-03T21:40:28.199Z,4.70
2019-02-03T21:42:56.841Z,4.70
2019-02-03T21:45:25.596Z,4.60
2019-02-03T21:47:54.407Z,4.60
2019-02-03T21:50:28.310Z,4.50
2019-02-03T21:52:57.332Z,4.40
2019-02-03T21:55:26.412Z,4.40
2019-02-03T21:57:55.400Z,4.40
2019-02-03T22:00:32.109Z,4.40
2019-02-03T22:03:01.286Z,4.30
2019-02-03T22:05:30.538Z,4.30
2019-02-03T22:07:59.386Z,4.30
2019-02-03T22:10:32.655Z,4.20
2019-02-03T22:13:03.063Z,4.20
2019-02-03T22:15:32.085Z,4.20
2019-02-03T22:18:01.490Z,4.10
2019-02-03T22:20:30.292Z,4.10
2019-02-03T22:22:58.816Z,4.10
2019-02-03T22:25:27.214Z,4.00
2019-02-03T22:27:55.917Z,4.00
2019-02-03T22:30:27.346Z,3.90
2019-02-03T22:32:55.817Z,3.80
2019-02-03T22:35:24.218Z,3.80
2019-02-03T22:37:52.735Z,3.70
2019-02-03T22:40:21.877Z,3.60
2019-02-03T22:42:50.364Z,3.60
2019-02-03T22:45:21.004Z,3.50
2019-02-03T22:47:49.762Z,3.50
2019-02-03T22:50:28.841Z,3.60
2019-02-03T22:52:57.704Z,3.60
2019-02-03T22:55:26.243Z,3.50
2019-02-03T22:57:55.633Z,3.50
2019-02-03T23:00:46.976Z,3.60
2019-02-03T23:03:16.206Z,3.60
2019-02-03T23:05:45.317Z,3.60
2019-02-03T23:08:13.854Z,3.50
2019-02-03T23:10:42.777Z,3.50
2019-02-03T23:13:11.372Z,3.50
2019-02-03T23:15:40.037Z,3.50
2019-02-03T23:18:08.977Z,3.50
2019-02-03T23:20:37.403Z,3.50
2019-02-03T23:23:06.118Z,3.50
2019-02-03T23:25:35.223Z,3.50
2019-02-03T23:28:03.988Z,3.50
2019-02-03T23:30:32.684Z,3.40
2019-02-03T23:33:01.560Z,3.50
2019-02-03T23:35:30.317Z,3.50
2019-02-03T23:37:58.987Z,3.40
2019-02-03T23:40:27.683Z,3.40
2019-02-03T23:42:58.676Z,3.40
2019-02-03T23:45:26.492Z,3.40
2019-02-03T23:47:55.024Z,3.30
2019-02-03T23:50:23.501Z,3.20
2019-02-03T23:52:52.158Z,3.10
2019-02-03T23:55:20.847Z,3.10
2019-02-03T23:57:49.266Z,3.10
